createdAt,value
2023-03-20T00:01:13.378Z,7.68
2023-03-20T00:03:39.875Z,7.67
2023-03-20T00:06:12.134Z,7.66
2023-03-20T00:08:39.631Z,7.65
2023-03-20T00:11:06.098Z,7.65
2023-03-20T00:13:32.513Z,7.63
2023-03-20T00:15:58.985Z,7.65
2023-03-20T00:18:26.616Z,7.64
2023-03-20T00:20:53.696Z,7.64
2023-03-20T00:23:20.709Z,7.63
2023-03-20T00:25:47.409Z,7.63
2023-03-20T00:28:29.075Z,7.63
2023-03-20T00:30:55.851Z,7.63
2023-03-20T00:33:22.483Z,7.64
2023-03-20T00:35:49.051Z,7.64
2023-03-20T00:38:15.493Z,7.64
2023-03-20T00:40:41.898Z,7.65
2023-03-20T00:43:10.418Z,7.63
2023-03-20T00:45:37.017Z,7.62
2023-03-20T00:48:03.675Z,7.59
2023-03-20T00:50:31.440Z,7.61
2023-03-20T00:52:59.193Z,7.60
2023-03-20T00:55:28.417Z,7.61
2023-03-20T00:58:00.748Z,7.61
2023-03-20T01:00:35.503Z,7.60
2023-03-20T01:03:10.406Z,7.61
2023-03-20T01:05:37.151Z,7.62
2023-03-20T01:08:10.646Z,7.63
2023-03-20T01:10:37.081Z,7.63
2023-03-20T01:13:03.717Z,7.62
2023-03-20T01:15:34.393Z,7.62
2023-03-20T01:18:00.940Z,7.63
2023-03-20T01:20:29.490Z,7.62
2023-03-20T01:22:56.174Z,7.61
2023-03-20T01:25:23.513Z,7.63
2023-03-20T01:27:52.457Z,7.61
2023-03-20T01:30:25.691Z,7.61
2023-03-20T01:32:53.092Z,7.59
2023-03-20T01:35:22.494Z,7.57
2023-03-20T01:37:50.154Z,7.57
2023-03-20T01:40:31.405Z,7.57
2023-03-20T01:42:57.845Z,7.56
2023-03-20T01:45:29.968Z,7.53
2023-03-20T01:47:58.738Z,7.48
2023-03-20T01:50:31.590Z,7.43
2023-03-20T01:53:22.529Z,7.41
2023-03-20T01:55:54.068Z,7.38
2023-03-20T01:58:25.912Z,7.35
2023-03-20T02:00:53.477Z,7.30
2023-03-20T02:03:21.164Z,7.23
2023-03-20T02:05:48.520Z,7.13
2023-03-20T02:08:41.129Z,7.08
2023-03-20T02:11:08.098Z,7.06
2023-03-20T02:13:35.059Z,7.07
2023-03-20T02:16:08.104Z,7.10
2023-03-20T02:18:35.572Z,7.09
2023-03-20T02:21:32.916Z,7.09
2023-03-20T02:24:11.223Z,7.09
2023-03-20T02:27:06.901Z,7.11
2023-03-20T02:29:55.130Z,7.12
2023-03-20T02:32:59.351Z,7.11
2023-03-20T02:35:46.949Z,7.10
2023-03-20T02:38:54.877Z,7.09
2023-03-20T02:41:51.465Z,7.06
2023-03-20T02:44:31.410Z,7.06
2023-03-20T02:47:24.085Z,7.06
2023-03-20T02:49:57.844Z,7.03
2023-03-20T02:52:36.531Z,7.04
2023-03-20T02:55:21.558Z,7.04
2023-03-20T02:58:10.761Z,7.01
2023-03-20T03:00:42.828Z,7.03
2023-03-20T03:03:18.419Z,7.00
2023-03-20T03:06:10.582Z,6.98
2023-03-20T03:08:45.116Z,6.90
2023-03-20T03:11:11.648Z,6.86
2023-03-20T03:13:45.160Z,6.80
2023-03-20T03:16:19.512Z,6.76
2023-03-20T03:18:46.671Z,6.74
2023-03-20T03:21:17.434Z,6.72
2023-03-20T03:23:49.331Z,6.67
2023-03-20T03:26:22.702Z,6.66
2023-03-20T03:28:56.892Z,6.64
2023-03-20T03:31:24.766Z,6.62
2023-03-20T03:33:55.526Z,6.60
2023-03-20T03:36:46.279Z,6.54
2023-03-20T03:39:27.184Z,6.48
2023-03-20T03:42:03.657Z,6.45
2023-03-20T03:44:41.876Z,6.41
2023-03-20T03:47:16.500Z,6.34
2023-03-20T03:49:50.864Z,6.30
2023-03-20T03:52:22.628Z,6.21
2023-03-20T03:55:00.772Z,6.17
2023-03-20T03:57:50.684Z,6.12
2023-03-20T04:00:23.759Z,6.10
2023-03-20T04:02:54.562Z,6.08
2023-03-20T04:05:22.696Z,6.07
2023-03-20T04:07:54.080Z,6.06
2023-03-20T04:10:20.680Z,6.06
2023-03-20T04:12:47.367Z,6.05
2023-03-20T04:15:16.007Z,6.05
2023-03-20T04:17:42.976Z,6.06
2023-03-20T04:20:11.040Z,6.07
2023-03-20T04:22:37.637Z,6.06
2023-03-20T04:25:09.247Z,6.08
2023-03-20T04:27:36.231Z,6.09
2023-03-20T04:30:02.660Z,6.10
2023-03-20T04:32:29.029Z,6.12
2023-03-20T04:34:55.403Z,6.12
2023-03-20T04:37:21.753Z,6.11
2023-03-20T04:39:48.359Z,6.12
2023-03-20T04:42:14.957Z,6.14
2023-03-20T04:44:41.301Z,6.16
2023-03-20T04:47:07.727Z,6.17
2023-03-20T04:49:34.144Z,6.17
2023-03-20T04:52:00.605Z,6.18
2023-03-20T04:54:27.173Z,6.20
2023-03-20T04:56:53.557Z,6.19
2023-03-20T04:59:20.406Z,6.19
2023-03-20T05:01:46.957Z,6.21
2023-03-20T05:04:13.543Z,6.20
2023-03-20T05:06:40.388Z,6.20
2023-03-20T05:09:06.748Z,6.21
2023-03-20T05:11:33.118Z,6.21
2023-03-20T05:13:59.566Z,6.21
2023-03-20T05:16:26.068Z,6.21
2023-03-20T05:18:52.488Z,6.21
2023-03-20T05:21:18.884Z,6.19
2023-03-20T05:23:45.515Z,6.20
2023-03-20T05:26:11.962Z,6.20
2023-03-20T05:28:38.339Z,6.18
2023-03-20T05:31:05.057Z,6.20
2023-03-20T05:33:31.594Z,6.19
2023-03-20T05:35:57.973Z,6.18
2023-03-20T05:38:25.696Z,6.18
2023-03-20T05:41:01.860Z,6.20
2023-03-20T05:43:29.099Z,6.17
2023-03-20T05:45:56.309Z,6.17
2023-03-20T05:48:23.246Z,6.17
2023-03-20T05:50:49.783Z,6.18
2023-03-20T05:53:16.280Z,6.17
2023-03-20T05:55:44.593Z,6.19
2023-03-20T05:58:11.972Z,6.21
2023-03-20T06:00:39.415Z,6.24
2023-03-20T06:03:08.668Z,6.26
2023-03-20T06:05:35.889Z,6.30
2023-03-20T06:08:03.030Z,6.29
2023-03-20T06:10:30.177Z,6.31
2023-03-20T06:12:58.181Z,6.32
2023-03-20T06:15:24.700Z,6.33
2023-03-20T06:17:51.266Z,6.34
2023-03-20T06:20:18.024Z,6.36
2023-03-20T06:22:45.463Z,6.35
2023-03-20T06:25:11.895Z,6.36
2023-03-20T06:27:38.278Z,6.35
2023-03-20T06:30:06.028Z,6.35
2023-03-20T06:32:32.590Z,6.35
2023-03-20T06:34:59.035Z,6.36
2023-03-20T06:37:25.613Z,6.37
2023-03-20T06:39:52.044Z,6.41
2023-03-20T06:42:18.706Z,6.42
2023-03-20T06:44:45.048Z,6.41
2023-03-20T06:47:11.438Z,6.42
2023-03-20T06:49:37.826Z,6.44
2023-03-20T06:52:04.405Z,6.49
2023-03-20T06:54:30.746Z,6.53
2023-03-20T06:56:57.176Z,6.55
2023-03-20T06:59:23.678Z,6.59
2023-03-20T07:01:50.395Z,6.56
2023-03-20T07:04:17.297Z,6.54
2023-03-20T07:06:43.741Z,6.56
2023-03-20T07:09:10.089Z,6.56
2023-03-20T07:11:36.411Z,6.56
2023-03-20T07:14:03.508Z,6.55
2023-03-20T07:16:29.930Z,6.57
2023-03-20T07:18:56.285Z,6.59
2023-03-20T07:21:23.017Z,6.60
2023-03-20T07:23:49.397Z,6.61
2023-03-20T07:26:16.010Z,6.62
2023-03-20T07:28:42.577Z,6.64
2023-03-20T07:31:19.242Z,6.68
2023-03-20T07:33:45.831Z,6.71
2023-03-20T07:36:12.414Z,6.70
2023-03-20T07:38:38.733Z,6.68
2023-03-20T07:41:05.838Z,6.68
2023-03-20T07:43:32.661Z,6.71
2023-03-20T07:46:02.609Z,6.74
2023-03-20T07:48:29.123Z,6.78
2023-03-20T07:50:55.767Z,6.85
2023-03-20T07:53:22.459Z,6.90
2023-03-20T07:55:48.862Z,6.95
2023-03-20T07:58:15.537Z,6.94
2023-03-20T08:00:42.187Z,6.96
2023-03-20T08:03:09.504Z,6.97
2023-03-20T08:05:36.338Z,7.00
2023-03-20T08:08:03.426Z,7.03
2023-03-20T08:10:29.860Z,7.10
2023-03-20T08:12:56.328Z,7.21
2023-03-20T08:15:22.785Z,7.25
2023-03-20T08:17:49.563Z,7.36
2023-03-20T08:20:17.415Z,7.41
2023-03-20T08:22:46.934Z,7.41
2023-03-20T08:25:13.404Z,7.48
2023-03-20T08:27:39.965Z,7.54
2023-03-20T08:30:07.010Z,7.62
2023-03-20T08:32:33.545Z,7.63
2023-03-20T08:35:00.168Z,7.63
2023-03-20T08:37:26.611Z,7.66
2023-03-20T08:39:52.937Z,7.67
2023-03-20T08:42:19.315Z,7.72
2023-03-20T08:44:45.857Z,7.75
2023-03-20T08:47:12.302Z,7.78
2023-03-20T08:49:38.799Z,7.83
2023-03-20T08:52:05.803Z,7.88
2023-03-20T08:54:33.681Z,7.97
2023-03-20T08:57:00.102Z,8.08
2023-03-20T08:59:26.542Z,8.14
2023-03-20T09:01:53.042Z,8.13
2023-03-20T09:04:19.480Z,8.12
2023-03-20T09:06:46.585Z,8.14
2023-03-20T09:09:15.822Z,8.15
2023-03-20T09:11:42.375Z,8.09
2023-03-20T09:14:08.927Z,8.16
2023-03-20T09:16:35.473Z,8.10
2023-03-20T09:19:01.971Z,8.03
2023-03-20T09:21:28.285Z,8.01
2023-03-20T09:23:54.766Z,7.97
2023-03-20T09:26:21.458Z,7.95
2023-03-20T09:28:47.891Z,7.96
2023-03-20T09:31:15.123Z,7.96
2023-03-20T09:33:41.965Z,8.11
2023-03-20T09:36:11.406Z,8.13
2023-03-20T09:38:38.061Z,8.18
2023-03-20T09:41:05.949Z,8.18
2023-03-20T09:43:47.451Z,8.17
2023-03-20T09:46:33.255Z,8.09
2023-03-20T09:49:18.088Z,7.94
2023-03-20T09:51:47.182Z,7.88
2023-03-20T09:54:27.839Z,7.95
2023-03-20T09:56:57.416Z,8.02
2023-03-20T09:59:26.690Z,8.11
2023-03-20T10:02:00.750Z,8.18
2023-03-20T10:04:29.977Z,8.16
2023-03-20T10:06:56.784Z,8.17
2023-03-20T10:09:26.235Z,8.30
2023-03-20T10:12:31.876Z,8.46
2023-03-20T10:15:04.344Z,8.63
2023-03-20T10:17:51.673Z,8.83
2023-03-20T10:20:39.648Z,8.98
2023-03-20T10:23:27.191Z,8.96
2023-03-20T10:26:03.181Z,8.80
2023-03-20T10:28:40.077Z,8.74
2023-03-20T10:31:23.931Z,8.58
2023-03-20T10:34:17.613Z,8.42
2023-03-20T10:36:46.750Z,8.24
2023-03-20T10:39:49.936Z,8.16
2023-03-20T10:42:25.261Z,8.31
2023-03-20T10:45:24.189Z,8.40
2023-03-20T10:47:52.416Z,8.29
2023-03-20T10:50:32.875Z,8.32
2023-03-20T10:53:00.134Z,8.33
2023-03-20T10:55:37.874Z,8.25
2023-03-20T10:58:15.837Z,8.26
2023-03-20T11:00:43.740Z,8.26
2023-03-20T11:03:21.380Z,8.23
2023-03-20T11:06:08.647Z,8.26
2023-03-20T11:08:39.735Z,8.30
2023-03-20T11:11:06.269Z,8.38
2023-03-20T11:13:43.718Z,8.57
2023-03-20T11:16:26.098Z,8.50
2023-03-20T11:18:53.989Z,8.41
2023-03-20T11:21:24.688Z,8.37
2023-03-20T11:23:52.433Z,8.31
2023-03-20T11:26:40.529Z,8.12
2023-03-20T11:29:16.211Z,8.10
2023-03-20T11:31:42.999Z,8.10
2023-03-20T11:34:15.551Z,8.07
2023-03-20T11:37:08.885Z,8.01
2023-03-20T11:39:38.013Z,8.17
2023-03-20T11:42:24.630Z,8.18
2023-03-20T11:45:06.722Z,8.28
2023-03-20T11:47:36.053Z,8.43
2023-03-20T11:50:06.446Z,8.42
2023-03-20T11:52:39.631Z,8.37
2023-03-20T11:55:24.407Z,8.41
2023-03-20T11:57:50.902Z,8.57
2023-03-20T12:00:22.721Z,8.48
2023-03-20T12:02:50.530Z,8.47
2023-03-20T12:05:28.406Z,8.55
2023-03-20T12:07:58.156Z,8.58
2023-03-20T12:10:29.768Z,8.66
2023-03-20T12:13:12.182Z,8.76
2023-03-20T12:15:44.192Z,8.81
2023-03-20T12:18:22.694Z,8.69
2023-03-20T12:21:12.713Z,8.59
2023-03-20T12:23:53.055Z,8.56
2023-03-20T12:26:35.276Z,8.59
2023-03-20T12:29:32.187Z,8.58
2023-03-20T12:32:04.593Z,8.61
2023-03-20T12:34:53.102Z,8.55
2023-03-20T12:37:19.604Z,8.35
2023-03-20T12:39:53.129Z,8.28
2023-03-20T12:42:45.784Z,8.32
2023-03-20T12:45:18.705Z,8.34
2023-03-20T12:48:19.432Z,8.39
2023-03-20T12:50:57.908Z,8.43
2023-03-20T12:53:48.090Z,8.47
2023-03-20T12:56:48.140Z,8.53
2023-03-20T12:59:45.309Z,8.57
2023-03-20T13:02:51.060Z,8.49
2023-03-20T13:05:41.453Z,8.52
2023-03-20T13:08:24.437Z,8.48
2023-03-20T13:10:56.496Z,8.51
2023-03-20T13:13:46.587Z,8.42
2023-03-20T13:16:23.591Z,8.38
2023-03-20T13:18:59.164Z,8.39
2023-03-20T13:21:33.383Z,8.34
2023-03-20T13:24:06.805Z,8.26
2023-03-20T13:26:56.277Z,8.29
2023-03-20T13:29:36.005Z,8.28
2023-03-20T13:32:27.358Z,8.27
2023-03-20T13:34:56.756Z,8.36
2023-03-20T13:37:35.987Z,8.34
2023-03-20T13:40:14.304Z,8.30
2023-03-20T13:43:17.854Z,8.23
2023-03-20T13:45:44.535Z,8.24
2023-03-20T13:48:35.392Z,8.27
2023-03-20T13:51:16.429Z,8.34
2023-03-20T13:53:48.612Z,8.35
2023-03-20T13:56:32.080Z,8.32
2023-03-20T13:59:32.589Z,8.41
2023-03-20T14:02:20.936Z,8.37
2023-03-20T14:04:54.115Z,8.42
2023-03-20T14:07:33.809Z,8.39
2023-03-20T14:10:22.091Z,8.36
2023-03-20T14:13:00.831Z,8.33
2023-03-20T14:15:32.454Z,8.32
2023-03-20T14:18:04.580Z,8.33
2023-03-20T14:20:40.037Z,8.41
2023-03-20T14:23:14.713Z,8.30
2023-03-20T14:25:43.652Z,8.24
2023-03-20T14:28:13.042Z,8.17
2023-03-20T14:30:44.813Z,8.14
2023-03-20T14:33:17.063Z,8.12
2023-03-20T14:36:09.411Z,8.11
2023-03-20T14:38:56.985Z,8.09
2023-03-20T14:41:26.699Z,8.12
2023-03-20T14:43:59.058Z,8.13
2023-03-20T14:46:42.241Z,8.14
2023-03-20T14:49:30.776Z,8.18
2023-03-20T14:52:11.018Z,8.18
2023-03-20T14:54:41.440Z,8.23
2023-03-20T14:57:10.450Z,8.20
2023-03-20T14:59:37.059Z,8.19
2023-03-20T15:02:03.681Z,8.17
2023-03-20T15:04:38.767Z,8.13
2023-03-20T15:07:17.429Z,8.11
2023-03-20T15:09:46.622Z,8.10
2023-03-20T15:12:17.660Z,8.07
2023-03-20T15:14:51.154Z,8.03
2023-03-20T15:17:23.672Z,8.00
2023-03-20T15:19:50.678Z,8.03
2023-03-20T15:22:20.044Z,8.04
2023-03-20T15:24:55.815Z,8.05
2023-03-20T15:27:26.103Z,8.07
2023-03-20T15:29:54.677Z,8.05
2023-03-20T15:32:21.620Z,8.06
2023-03-20T15:34:50.174Z,8.08
2023-03-20T15:37:20.268Z,8.10
2023-03-20T15:39:50.872Z,8.06
2023-03-20T15:42:20.084Z,8.02
2023-03-20T15:44:49.318Z,8.01
2023-03-20T15:47:20.868Z,7.99
2023-03-20T15:49:56.106Z,8.00
2023-03-20T15:52:34.228Z,8.00
2023-03-20T15:55:06.166Z,8.02
2023-03-20T15:57:38.548Z,8.02
2023-03-20T16:00:10.032Z,7.99
2023-03-20T16:02:37.167Z,8.00
2023-03-20T16:05:04.274Z,8.01
2023-03-20T16:07:32.370Z,8.00
2023-03-20T16:09:59.562Z,7.97
2023-03-20T16:12:29.400Z,7.96
2023-03-20T16:14:57.972Z,7.98
2023-03-20T16:17:26.132Z,7.97
2023-03-20T16:19:53.178Z,7.97
2023-03-20T16:22:33.231Z,7.96
2023-03-20T16:25:01.947Z,7.96
2023-03-20T16:27:40.734Z,7.96
2023-03-20T16:30:14.153Z,8.00
2023-03-20T16:32:43.599Z,7.97
2023-03-20T16:35:20.022Z,7.99
2023-03-20T16:37:58.016Z,8.01
2023-03-20T16:40:28.603Z,7.99
2023-03-20T16:42:57.089Z,8.00
2023-03-20T16:45:28.339Z,7.99
2023-03-20T16:48:21.054Z,8.00
2023-03-20T16:50:53.023Z,8.02
2023-03-20T16:53:20.479Z,8.02
2023-03-20T16:55:49.697Z,8.02
2023-03-20T16:58:19.956Z,8.03
2023-03-20T17:00:52.884Z,8.04
2023-03-20T17:03:26.783Z,8.05
2023-03-20T17:06:06.057Z,8.07
2023-03-20T17:08:40.882Z,8.08
2023-03-20T17:11:13.989Z,8.07
2023-03-20T17:13:41.388Z,8.08
2023-03-20T17:16:16.020Z,8.09
2023-03-20T17:18:45.272Z,8.10
2023-03-20T17:21:11.777Z,8.11
2023-03-20T17:23:39.065Z,8.13
2023-03-20T17:26:09.789Z,8.13
2023-03-20T17:28:37.037Z,8.16
2023-03-20T17:31:05.300Z,8.15
2023-03-20T17:33:33.283Z,8.15
2023-03-20T17:36:00.805Z,8.17
2023-03-20T17:38:27.485Z,8.17
2023-03-20T17:40:53.944Z,8.17
2023-03-20T17:43:20.614Z,8.18
2023-03-20T17:45:47.887Z,8.19
2023-03-20T17:48:17.713Z,8.18
2023-03-20T17:50:45.777Z,8.19
2023-03-20T17:53:17.874Z,8.19
2023-03-20T17:55:44.472Z,8.21
2023-03-20T17:58:16.026Z,8.20
2023-03-20T18:00:43.228Z,8.21
2023-03-20T18:03:09.839Z,8.21
2023-03-20T18:05:39.370Z,8.23
2023-03-20T18:08:14.235Z,8.24
2023-03-20T18:10:41.339Z,8.25
2023-03-20T18:13:07.864Z,8.27
2023-03-20T18:15:34.470Z,8.29
2023-03-20T18:18:00.936Z,8.29
2023-03-20T18:20:31.207Z,8.32
2023-03-20T18:22:57.989Z,8.33
2023-03-20T18:25:26.006Z,8.33
2023-03-20T18:27:56.630Z,8.35
2023-03-20T18:30:26.457Z,8.34
2023-03-20T18:32:52.915Z,8.38
2023-03-20T18:35:19.324Z,8.38
2023-03-20T18:37:45.719Z,8.40
2023-03-20T18:40:19.046Z,8.41
2023-03-20T18:42:45.627Z,8.42
2023-03-20T18:45:12.849Z,8.45
2023-03-20T18:47:40.360Z,8.46
2023-03-20T18:50:18.903Z,8.48
2023-03-20T18:52:45.291Z,8.50
2023-03-20T18:55:11.675Z,8.51
2023-03-20T18:57:43.017Z,8.51
2023-03-20T19:00:21.394Z,8.53
2023-03-20T19:02:48.897Z,8.56
2023-03-20T19:05:15.560Z,8.57
2023-03-20T19:07:42.006Z,8.58
2023-03-20T19:10:24.776Z,8.60
2023-03-20T19:12:52.230Z,8.61
2023-03-20T19:15:19.537Z,8.62
2023-03-20T19:17:46.607Z,8.62
2023-03-20T19:20:37.436Z,8.64
2023-03-20T19:23:06.220Z,8.64
2023-03-20T19:25:33.577Z,8.66
2023-03-20T19:28:01.036Z,8.67
2023-03-20T19:30:37.517Z,8.67
2023-03-20T19:33:04.816Z,8.69
2023-03-20T19:36:04.510Z,8.68
2023-03-20T19:38:21.423Z,8.69
2023-03-20T19:40:52.801Z,8.71
2023-03-20T19:43:21.641Z,8.71
2023-03-20T19:45:51.732Z,8.72
2023-03-20T19:48:20.566Z,8.73
2023-03-20T19:50:49.408Z,8.73
2023-03-20T19:53:18.275Z,8.75
2023-03-20T19:55:46.218Z,8.75
2023-03-20T19:58:12.885Z,8.77
2023-03-20T20:00:58.495Z,8.78
2023-03-20T20:03:27.479Z,8.79
2023-03-20T20:05:55.088Z,8.82
2023-03-20T20:08:44.300Z,8.81
2023-03-20T20:11:09.743Z,8.83
2023-03-20T20:13:47.029Z,8.84
2023-03-20T20:16:22.599Z,8.85
2023-03-20T20:18:49.028Z,8.86
2023-03-20T20:24:02.531Z,8.87
2023-03-20T20:26:31.300Z,8.89
2023-03-20T20:29:01.657Z,8.90
2023-03-20T20:31:31.325Z,8.91
2023-03-20T20:34:34.944Z,8.92
2023-03-20T20:39:31.523Z,8.93
2023-03-20T20:41:57.955Z,8.94
2023-03-20T20:44:24.361Z,8.95
2023-03-20T20:46:51.514Z,8.96
2023-03-20T20:49:19.791Z,8.96
2023-03-20T20:51:47.126Z,8.97
2023-03-20T20:54:14.140Z,8.99
2023-03-20T20:56:40.832Z,8.99
2023-03-20T20:59:07.662Z,8.99
2023-03-20T21:01:34.150Z,8.99
2023-03-20T21:04:01.305Z,9.01
2023-03-20T21:06:57.858Z,9.01
2023-03-20T21:09:14.308Z,9.02
2023-03-20T21:11:40.667Z,9.02
2023-03-20T21:14:07.018Z,9.04
2023-03-20T21:16:33.374Z,9.03
2023-03-20T21:18:59.748Z,9.03
2023-03-20T21:21:26.277Z,9.03
2023-03-20T21:23:53.342Z,9.04
2023-03-20T21:26:19.944Z,9.05
2023-03-20T21:28:46.289Z,9.05
2023-03-20T21:31:26.650Z,9.06
2023-03-20T21:33:55.399Z,9.05
2023-03-20T21:36:23.379Z,9.04
2023-03-20T21:41:38.786Z,9.04
2023-03-20T21:44:06.842Z,9.04
2023-03-20T21:47:09.706Z,9.05
2023-03-20T21:56:02.556Z,9.01
2023-03-20T22:03:33.723Z,8.99
2023-03-20T22:12:27.815Z,8.99
2023-03-20T22:17:51.056Z,8.98
2023-03-20T22:26:20.997Z,8.98
2023-03-20T22:28:58.980Z,8.98
2023-03-20T22:42:50.805Z,8.93
2023-03-20T22:45:09.785Z,8.93
2023-03-20T22:47:36.671Z,8.94
2023-03-20T22:50:03.797Z,8.93
2023-03-20T22:52:45.581Z,8.94
2023-03-20T22:55:15.974Z,8.94
2023-03-20T22:57:50.166Z,8.93
2023-03-20T23:00:26.487Z,8.93
2023-03-20T23:02:57.244Z,8.93
2023-03-20T23:05:26.927Z,8.92
2023-03-20T23:07:53.298Z,8.93
2023-03-20T23:10:19.741Z,8.92
2023-03-20T23:12:46.375Z,8.92
2023-03-20T23:15:12.849Z,8.92
2023-03-20T23:17:39.197Z,8.91
2023-03-20T23:20:12.357Z,8.92
2023-03-20T23:22:40.586Z,8.90
2023-03-20T23:25:23.962Z,8.89
2023-03-20T23:27:57.656Z,8.87
2023-03-20T23:30:27.574Z,8.88
2023-03-20T23:32:57.191Z,8.87
2023-03-20T23:35:23.550Z,8.87
2023-03-20T23:37:50.249Z,8.86
2023-03-20T23:40:16.801Z,8.87
2023-03-20T23:42:43.241Z,8.86
2023-03-20T23:45:19.989Z,8.85
2023-03-20T23:47:48.257Z,8.86
2023-03-20T23:50:26.453Z,8.84
2023-03-20T23:53:03.517Z,8.84
2023-03-20T23:55:36.069Z,8.85
2023-03-20T23:58:02.729Z,8.84
